createdAt,value
2023-05-01T00:00:21.869Z,100557.94
2023-05-01T00:02:23.654Z,100554.72
2023-05-01T00:04:25.575Z,100549.59
2023-05-01T00:06:27.173Z,100552.47
2023-05-01T00:08:28.861Z,100552.00
2023-05-01T00:10:31.031Z,100545.75
2023-05-01T00:12:33.065Z,100544.16
2023-05-01T00:14:34.876Z,100541.13
2023-05-01T00:16:38.195Z,100537.88
2023-05-01T00:18:40.495Z,100541.44
2023-05-01T00:20:42.365Z,100539.53
2023-05-01T00:22:44.025Z,100526.34
2023-05-01T00:24:45.596Z,100532.69
2023-05-01T00:26:47.313Z,100520.38
2023-05-01T00:28:48.961Z,100526.13
2023-05-01T00:30:50.722Z,100522.78
2023-05-01T00:32:53.756Z,100520.91
2023-05-01T00:34:55.484Z,100515.47
2023-05-01T00:36:57.104Z,100515.16
2023-05-01T00:38:58.685Z,100515.97
2023-05-01T00:41:00.364Z,100508.59
2023-05-01T00:43:01.932Z,100512.78
2023-05-01T00:45:03.913Z,100507.63
2023-05-01T00:47:05.803Z,100510.53
2023-05-01T00:49:08.860Z,100503.34
2023-05-01T00:51:12.572Z,100503.97
2023-05-01T00:53:14.190Z,100499.16
2023-05-01T00:55:16.600Z,100500.28
2023-05-01T00:57:19.132Z,100498.03
2023-05-01T00:59:22.305Z,100499.81
2023-05-01T01:01:24.036Z,100490.03
2023-05-01T01:03:25.756Z,100492.91
2023-05-01T01:05:31.693Z,100488.91
2023-05-01T01:07:39.903Z,100495.00
2023-05-01T01:09:50.197Z,100490.03
2023-05-01T01:12:03.384Z,100492.13
2023-05-01T01:14:11.612Z,100490.69
2023-05-01T01:16:21.518Z,100483.00
2023-05-01T01:18:32.956Z,100482.34
2023-05-01T01:20:49.266Z,100478.34
2023-05-01T01:22:59.936Z,100471.44
2023-05-01T01:25:33.481Z,100471.44
2023-05-01T01:28:16.883Z,100469.84
2023-05-01T01:30:42.078Z,100475.13
2023-05-01T01:33:03.693Z,100471.59
2023-05-01T01:35:12.749Z,100470.81
2023-05-01T01:37:25.358Z,100473.06
2023-05-01T01:39:36.797Z,100465.56
2023-05-01T01:41:40.060Z,100469.56
2023-05-01T01:43:47.390Z,100467.31
2023-05-01T01:45:55.218Z,100468.56
2023-05-01T01:47:58.098Z,100465.22
2023-05-01T01:50:05.050Z,100466.81
2023-05-01T01:52:10.989Z,100464.59
2023-05-01T01:54:15.151Z,100461.53
2023-05-01T01:56:19.014Z,100462.34
2023-05-01T01:58:23.250Z,100461.22
2023-05-01T02:00:25.100Z,100455.94
2023-05-01T02:02:29.535Z,100459.31
2023-05-01T02:04:32.821Z,100453.06
2023-05-01T02:06:36.224Z,100453.06
2023-05-01T02:08:40.980Z,100449.22
2023-05-01T02:10:44.206Z,100444.41
2023-05-01T02:12:48.045Z,100450.19
2023-05-01T02:14:51.611Z,100454.03
2023-05-01T02:16:55.032Z,100442.66
2023-05-01T02:18:57.776Z,100444.28
2023-05-01T02:20:59.949Z,100443.63
2023-05-01T02:23:03.336Z,100447.47
2023-05-01T02:25:08.559Z,100450.34
2023-05-01T02:27:15.708Z,100453.88
2023-05-01T02:29:17.265Z,100461.38
2023-05-01T02:31:18.919Z,100471.50
2023-05-01T02:33:20.819Z,100466.66
2023-05-01T02:35:22.322Z,100465.53
2023-05-01T02:37:24.048Z,100461.19
2023-05-01T02:39:25.745Z,100464.25
2023-05-01T02:41:29.936Z,100460.75
2023-05-01T02:43:33.546Z,100461.88
2023-05-01T02:45:38.728Z,100449.69
2023-05-01T02:47:44.195Z,100457.06
2023-05-01T02:49:47.067Z,100459.78
2023-05-01T02:51:51.194Z,100442.81
2023-05-01T02:53:53.413Z,100443.59
2023-05-01T02:55:55.139Z,100442.97
2023-05-01T02:57:59.741Z,100442.34
2023-05-01T03:00:01.363Z,100445.38
2023-05-01T03:02:03.398Z,100444.56
2023-05-01T03:04:05.541Z,100441.22
2023-05-01T03:06:07.236Z,100438.34
2023-05-01T03:08:08.994Z,100430.16
2023-05-01T03:10:16.854Z,100444.75
2023-05-01T03:12:18.468Z,100436.59
2023-05-01T03:14:21.378Z,100446.50
2023-05-01T03:16:23.062Z,100438.16
2023-05-01T03:18:24.732Z,100433.22
2023-05-01T03:20:27.480Z,100433.69
2023-05-01T03:22:29.569Z,100419.28
2023-05-01T03:24:31.125Z,100424.72
2023-05-01T03:26:32.679Z,100420.72
2023-05-01T03:28:34.268Z,100431.28
2023-05-01T03:30:37.380Z,100422.31
2023-05-01T03:32:39.022Z,100423.09
2023-05-01T03:34:40.732Z,100428.88
2023-05-01T03:36:42.325Z,100427.78
2023-05-01T03:38:43.899Z,100416.88
2023-05-01T03:40:45.544Z,100422.00
2023-05-01T03:42:47.137Z,100420.88
2023-05-01T03:44:49.925Z,100415.91
2023-05-01T03:46:52.914Z,100423.28
2023-05-01T03:48:54.457Z,100423.94
2023-05-01T03:50:58.477Z,100414.31
2023-05-01T03:53:00.050Z,100416.72
2023-05-01T03:55:01.648Z,100409.19
2023-05-01T03:57:03.528Z,100415.75
2023-05-01T03:59:05.171Z,100408.88
2023-05-01T04:01:06.804Z,100408.53
2023-05-01T04:03:09.910Z,100414.31
2023-05-01T04:05:11.704Z,100403.28
2023-05-01T04:07:13.782Z,100407.56
2023-05-01T04:09:15.818Z,100410.44
2023-05-01T04:11:17.444Z,100414.59
2023-05-01T04:13:19.000Z,100410.78
2023-05-01T04:15:20.566Z,100408.53
2023-05-01T04:17:22.220Z,100413.94
2023-05-01T04:19:25.247Z,100410.91
2023-05-01T04:21:26.752Z,100416.00
2023-05-01T04:23:28.303Z,100407.72
2023-05-01T04:25:29.847Z,100408.34
2023-05-01T04:27:31.573Z,100410.06
2023-05-01T04:29:33.455Z,100405.75
2023-05-01T04:31:35.274Z,100409.75
2023-05-01T04:33:36.951Z,100411.84
2023-05-01T04:35:40.702Z,100405.09
2023-05-01T04:37:42.288Z,100409.25
2023-05-01T04:39:44.184Z,100413.56
2023-05-01T04:41:45.831Z,100407.25
2023-05-01T04:43:47.407Z,100402.75
2023-05-01T04:45:48.989Z,100413.13
2023-05-01T04:47:50.911Z,100408.00
2023-05-01T04:49:58.539Z,100408.47
2023-05-01T04:52:01.667Z,100409.44
2023-05-01T04:54:03.568Z,100416.50
2023-05-01T04:56:06.947Z,100414.88
2023-05-01T04:58:09.572Z,100412.97
2023-05-01T05:00:12.696Z,100416.34
2023-05-01T05:02:14.358Z,100411.72
2023-05-01T05:04:17.566Z,100415.75
2023-05-01T05:06:29.003Z,100416.88
2023-05-01T05:08:32.393Z,100409.53
2023-05-01T05:10:38.904Z,100406.16
2023-05-01T05:12:43.536Z,100418.47
2023-05-01T05:14:45.290Z,100415.75
2023-05-01T05:16:47.220Z,100414.16
2023-05-01T05:18:48.954Z,100416.38
2023-05-01T05:20:50.717Z,100413.19
2023-05-01T05:22:52.519Z,100427.91
2023-05-01T05:24:56.433Z,100422.47
2023-05-01T05:26:59.234Z,100421.19
2023-05-01T05:29:01.154Z,100418.00
2023-05-01T05:31:03.054Z,100413.81
2023-05-01T05:33:07.503Z,100426.47
2023-05-01T05:35:09.477Z,100415.44
2023-05-01T05:37:11.247Z,100424.97
2023-05-01T05:39:13.300Z,100417.31
2023-05-01T05:41:19.813Z,100414.56
2023-05-01T05:43:22.560Z,100420.19
2023-05-01T05:45:24.222Z,100415.88
2023-05-01T05:47:25.812Z,100413.16
2023-05-01T05:49:30.216Z,100415.69
2023-05-01T05:51:31.932Z,100420.19
2023-05-01T05:53:36.133Z,100412.69
2023-05-01T05:55:37.833Z,100414.13
2023-05-01T05:57:42.181Z,100420.06
2023-05-01T05:59:44.032Z,100421.94
2023-05-01T06:01:47.743Z,100413.16
2023-05-01T06:03:50.359Z,100416.38
2023-05-01T06:05:52.338Z,100423.25
2023-05-01T06:07:57.224Z,100420.06
2023-05-01T06:10:00.438Z,100411.59
2023-05-01T06:12:02.331Z,100411.13
2023-05-01T06:14:07.867Z,100414.97
2023-05-01T06:16:09.790Z,100411.28
2023-05-01T06:18:11.530Z,100410.63
2023-05-01T06:20:17.368Z,100414.16
2023-05-01T06:22:19.133Z,100408.41
2023-05-01T06:24:20.746Z,100404.06
2023-05-01T06:26:22.923Z,100406.50
2023-05-01T06:28:24.929Z,100403.25
2023-05-01T06:30:28.051Z,100408.38
2023-05-01T06:32:32.787Z,100407.75
2023-05-01T06:34:36.199Z,100402.63
2023-05-01T06:36:38.312Z,100398.47
2023-05-01T06:38:40.001Z,100401.97
2023-05-01T06:40:41.748Z,100402.47
2023-05-01T06:42:43.968Z,100405.81
2023-05-01T06:44:45.957Z,100407.41
2023-05-01T06:46:50.750Z,100408.19
2023-05-01T06:48:52.718Z,100408.38
2023-05-01T06:50:56.195Z,100407.06
2023-05-01T06:52:57.853Z,100404.34
2023-05-01T06:55:03.573Z,100407.41
2023-05-01T06:57:05.316Z,100410.44
2023-05-01T06:59:06.935Z,100414.78
2023-05-01T07:01:09.286Z,100408.53
2023-05-01T07:03:12.393Z,100411.59
2023-05-01T07:05:14.413Z,100409.00
2023-05-01T07:07:15.962Z,100413.16
2023-05-01T07:09:17.804Z,100414.25
2023-05-01T07:11:19.661Z,100409.63
2023-05-01T07:13:21.396Z,100412.50
2023-05-01T07:15:23.462Z,100402.25
2023-05-01T07:17:25.422Z,100408.03
2023-05-01T07:19:28.436Z,100405.75
2023-05-01T07:21:30.230Z,100405.75
2023-05-01T07:23:31.863Z,100404.13
2023-05-01T07:25:33.549Z,100411.19
2023-05-01T07:27:35.405Z,100405.94
2023-05-01T07:29:38.394Z,100402.38
2023-05-01T07:31:45.842Z,100409.09
2023-05-01T07:33:47.518Z,100411.31
2023-05-01T07:35:50.583Z,100415.81
2023-05-01T07:37:52.238Z,100413.50
2023-05-01T07:39:53.990Z,100414.75
2023-05-01T07:41:57.340Z,100412.84
2023-05-01T07:43:59.059Z,100419.31
2023-05-01T07:46:01.121Z,100414.38
2023-05-01T07:48:02.913Z,100412.00
2023-05-01T07:50:05.452Z,100420.44
2023-05-01T07:52:08.455Z,100412.28
2023-05-01T07:54:10.094Z,100420.31
2023-05-01T07:56:12.046Z,100410.88
2023-05-01T07:58:13.644Z,100413.16
2023-05-01T08:00:16.446Z,100409.81
2023-05-01T08:02:18.071Z,100412.69
2023-05-01T08:04:20.093Z,100412.69
2023-05-01T08:06:21.977Z,100414.47
2023-05-01T08:08:25.137Z,100412.25
2023-05-01T08:10:26.898Z,100410.47
2023-05-01T08:12:29.369Z,100409.06
2023-05-01T08:14:30.927Z,100408.09
2023-05-01T08:16:33.882Z,100411.31
2023-05-01T08:18:35.606Z,100411.31
2023-05-01T08:20:37.301Z,100415.63
2023-05-01T08:22:38.962Z,100416.91
2023-05-01T08:24:41.948Z,100413.03
2023-05-01T08:26:43.939Z,100419.31
2023-05-01T08:28:45.851Z,100412.38
2023-05-01T08:30:47.739Z,100411.69
2023-05-01T08:32:49.532Z,100407.84
2023-05-01T08:34:51.252Z,100411.34
2023-05-01T08:36:52.882Z,100417.25
2023-05-01T08:38:54.458Z,100416.06
2023-05-01T08:40:57.387Z,100416.06
2023-05-01T08:43:00.947Z,100413.66
2023-05-01T08:45:03.596Z,100417.94
2023-05-01T08:47:11.639Z,100423.03
2023-05-01T08:49:16.064Z,100419.06
2023-05-01T08:51:20.680Z,100417.13
2023-05-01T08:53:23.983Z,100419.53
2023-05-01T08:55:26.341Z,100418.38
2023-05-01T08:57:31.331Z,100413.41
2023-05-01T08:59:34.806Z,100415.34
2023-05-01T09:01:38.621Z,100417.59
2023-05-01T09:03:40.657Z,100417.59
2023-05-01T09:05:46.212Z,100412.41
2023-05-01T09:07:48.365Z,100411.41
2023-05-01T09:09:52.258Z,100409.19
2023-05-01T09:11:54.880Z,100416.38
2023-05-01T09:13:58.357Z,100414.66
2023-05-01T09:16:00.200Z,100414.38
2023-05-01T09:18:03.878Z,100414.53
2023-05-01T09:20:11.565Z,100412.63
2023-05-01T09:22:13.522Z,100409.25
2023-05-01T09:24:15.156Z,100404.91
2023-05-01T09:26:16.719Z,100403.94
2023-05-01T09:28:18.413Z,100411.00
2023-05-01T09:30:35.498Z,100409.19
2023-05-01T09:32:37.282Z,100410.31
2023-05-01T09:34:38.963Z,100410.03
2023-05-01T09:36:46.095Z,100412.47
2023-05-01T09:38:47.799Z,100408.16
2023-05-01T09:40:49.629Z,100405.91
2023-05-01T09:42:52.667Z,100407.16
2023-05-01T09:44:54.497Z,100412.13
2023-05-01T09:46:57.521Z,100406.94
2023-05-01T09:49:01.398Z,100413.13
2023-05-01T09:51:20.331Z,100410.75
2023-05-01T09:53:36.646Z,100407.41
2023-05-01T09:55:38.490Z,100409.03
2023-05-01T09:57:40.735Z,100410.41
2023-05-01T09:59:42.304Z,100402.72
2023-05-01T10:01:45.987Z,100396.72
2023-05-01T10:03:54.189Z,100403.72
2023-05-01T10:05:55.855Z,100403.25
2023-05-01T10:08:01.418Z,100402.59
2023-05-01T10:10:16.634Z,100399.31
2023-05-01T10:12:23.986Z,100410.66
2023-05-01T10:14:25.625Z,100402.06
2023-05-01T10:16:30.627Z,100399.72
2023-05-01T10:18:33.924Z,100401.38
2023-05-01T10:20:39.992Z,100403.47
2023-05-01T10:22:41.730Z,100402.44
2023-05-01T10:24:44.077Z,100404.03
2023-05-01T10:26:48.900Z,100404.09
2023-05-01T10:28:50.451Z,100394.88
2023-05-01T10:30:53.157Z,100396.81
2023-05-01T10:32:54.840Z,100407.88
2023-05-01T10:35:00.766Z,100399.91
2023-05-01T10:37:11.568Z,100397.78
2023-05-01T10:39:31.247Z,100404.38
2023-05-01T10:42:00.312Z,100400.19
2023-05-01T10:44:20.291Z,100393.91
2023-05-01T10:46:28.521Z,100395.78
2023-05-01T10:48:58.055Z,100401.56
2023-05-01T10:51:09.977Z,100399.41
2023-05-01T10:53:19.121Z,100392.13
2023-05-01T10:55:34.196Z,100395.31
2023-05-01T10:57:42.740Z,100391.59
2023-05-01T11:00:11.384Z,100386.91
2023-05-01T11:02:22.388Z,100388.16
2023-05-01T11:04:52.245Z,100388.72
2023-05-01T11:07:15.910Z,100385.09
2023-05-01T11:09:38.819Z,100385.16
2023-05-01T11:11:49.534Z,100383.00
2023-05-01T11:13:58.347Z,100379.31
2023-05-01T11:16:38.843Z,100379.44
2023-05-01T11:18:46.708Z,100380.25
2023-05-01T11:20:52.470Z,100381.91
2023-05-01T11:22:55.977Z,100374.66
2023-05-01T11:24:59.212Z,100368.81
2023-05-01T11:27:01.716Z,100370.59
2023-05-01T11:29:04.960Z,100364.34
2023-05-01T11:31:06.853Z,100369.91
2023-05-01T11:33:10.454Z,100357.00
2023-05-01T11:35:20.651Z,100357.19
2023-05-01T11:37:40.686Z,100364.88
2023-05-01T11:39:49.562Z,100367.69
2023-05-01T11:42:06.387Z,100362.78
2023-05-01T11:44:08.082Z,100363.56
2023-05-01T11:46:09.858Z,100360.03
2023-05-01T11:48:15.317Z,100361.34
2023-05-01T11:50:17.151Z,100361.78
2023-05-01T11:52:18.849Z,100358.50
2023-05-01T11:54:20.482Z,100356.22
2023-05-01T11:56:26.500Z,100362.78
2023-05-01T11:58:34.355Z,100353.50
2023-05-01T12:00:37.347Z,100348.38
2023-05-01T12:02:39.084Z,100348.47
2023-05-01T12:04:40.779Z,100350.66
2023-05-01T12:06:45.110Z,100351.72
2023-05-01T12:08:48.857Z,100346.41
2023-05-01T12:10:53.203Z,100344.44
2023-05-01T12:12:54.986Z,100345.91
2023-05-01T12:14:58.198Z,100348.56
2023-05-01T12:17:00.356Z,100345.28
2023-05-01T12:19:02.469Z,100340.63
2023-05-01T12:21:04.073Z,100345.03
2023-05-01T12:23:06.823Z,100342.25
2023-05-01T12:25:09.242Z,100343.38
2023-05-01T12:27:11.126Z,100344.47
2023-05-01T12:29:13.185Z,100340.28
2023-05-01T12:31:16.176Z,100346.75
2023-05-01T12:33:19.672Z,100335.56
2023-05-01T12:35:21.883Z,100339.41
2023-05-01T12:37:31.539Z,100332.34
2023-05-01T12:39:38.083Z,100334.13
2023-05-01T12:41:42.509Z,100340.13
2023-05-01T12:43:44.477Z,100335.97
2023-05-01T12:45:48.726Z,100336.94
2023-05-01T12:47:52.179Z,100337.75
2023-05-01T12:50:02.459Z,100335.59
2023-05-01T12:52:06.443Z,100338.63
2023-05-01T12:54:08.947Z,100328.16
2023-05-01T12:56:21.397Z,100328.56
2023-05-01T12:58:24.195Z,100331.72
2023-05-01T13:00:25.809Z,100332.81
2023-05-01T13:02:31.448Z,100328.34
2023-05-01T13:04:36.550Z,100327.63
2023-05-01T13:06:38.286Z,100331.66
2023-05-01T13:08:40.210Z,100327.28
2023-05-01T13:10:41.911Z,100327.22
2023-05-01T13:12:44.560Z,100318.19
2023-05-01T13:14:46.322Z,100324.69
2023-05-01T13:16:48.268Z,100321.16
2023-05-01T13:18:51.486Z,100320.66
2023-05-01T13:20:54.491Z,100317.44
2023-05-01T13:22:56.224Z,100323.63
2023-05-01T13:24:58.120Z,100327.31
2023-05-01T13:26:59.744Z,100325.13
2023-05-01T13:29:02.753Z,100324.63
2023-05-01T13:31:11.437Z,100326.16
2023-05-01T13:33:13.114Z,100319.06
2023-05-01T13:35:22.795Z,100324.72
2023-05-01T13:37:25.789Z,100323.38
2023-05-01T13:39:27.642Z,100322.44
2023-05-01T13:41:29.292Z,100318.38
2023-05-01T13:43:30.890Z,100319.03
2023-05-01T13:45:40.806Z,100313.81
2023-05-01T13:47:42.624Z,100318.69
2023-05-01T13:49:44.768Z,100315.50
2023-05-01T13:51:46.395Z,100315.84
2023-05-01T13:53:49.370Z,100309.41
2023-05-01T13:55:51.003Z,100313.09
2023-05-01T13:57:52.625Z,100307.66
2023-05-01T13:59:54.257Z,100301.22
2023-05-01T14:01:55.964Z,100300.28
2023-05-01T14:03:57.833Z,100295.84
2023-05-01T14:06:02.742Z,100299.06
2023-05-01T14:08:04.773Z,100292.41
2023-05-01T14:10:09.502Z,100292.09
2023-05-01T14:12:13.258Z,100292.97
2023-05-01T14:14:16.088Z,100286.34
2023-05-01T14:16:23.712Z,100290.63
2023-05-01T14:18:25.435Z,100287.97
2023-05-01T14:20:27.059Z,100278.69
2023-05-01T14:22:30.004Z,100287.88
2023-05-01T14:24:34.913Z,100288.50
2023-05-01T14:26:39.828Z,100284.03
2023-05-01T14:28:42.580Z,100276.25
2023-05-01T14:30:44.312Z,100274.66
2023-05-01T14:32:45.977Z,100269.34
2023-05-01T14:34:47.588Z,100272.09
2023-05-01T14:36:49.428Z,100267.66
2023-05-01T14:38:51.370Z,100269.53
2023-05-01T14:40:52.966Z,100278.25
2023-05-01T14:42:57.796Z,100274.66
2023-05-01T14:44:59.604Z,100276.56
2023-05-01T14:47:01.398Z,100276.75
2023-05-01T14:49:03.089Z,100275.50
2023-05-01T14:51:05.254Z,100277.47
2023-05-01T14:53:06.872Z,100273.72
2023-05-01T14:55:10.837Z,100273.06
2023-05-01T14:57:12.934Z,100271.47
2023-05-01T14:59:16.149Z,100273.06
2023-05-01T15:01:20.536Z,100274.94
2023-05-01T15:03:22.376Z,100277.94
2023-05-01T15:05:24.023Z,100272.78
2023-05-01T15:07:25.664Z,100285.19
2023-05-01T15:09:27.296Z,100285.03
2023-05-01T15:11:28.888Z,100281.16
2023-05-01T15:13:30.514Z,100279.44
2023-05-01T15:15:33.678Z,100286.34
2023-05-01T15:17:35.293Z,100284.19
2023-05-01T15:19:39.328Z,100279.56
2023-05-01T15:21:40.937Z,100280.28
2023-05-01T15:23:42.568Z,100277.91
2023-05-01T15:25:44.192Z,100280.72
2023-05-01T15:27:46.143Z,100272.84
2023-05-01T15:29:47.826Z,100270.53
2023-05-01T15:32:01.256Z,100274.09
2023-05-01T15:34:06.401Z,100272.28
2023-05-01T15:36:07.885Z,100272.94
2023-05-01T15:38:09.617Z,100274.03
2023-05-01T15:40:11.687Z,100275.59
2023-05-01T15:42:13.489Z,100272.69
2023-05-01T15:44:15.082Z,100273.34
2023-05-01T15:46:16.695Z,100273.63
2023-05-01T15:48:19.743Z,100267.63
2023-05-01T15:50:22.136Z,100277.72
2023-05-01T15:52:23.938Z,100273.38
2023-05-01T15:54:27.536Z,100278.28
2023-05-01T15:56:29.468Z,100281.53
2023-05-01T15:58:31.148Z,100288.63
2023-05-01T16:00:32.825Z,100277.56
2023-05-01T16:02:34.561Z,100291.69
2023-05-01T16:04:37.770Z,100287.81
2023-05-01T16:06:40.436Z,100286.72
2023-05-01T16:08:44.720Z,100290.91
2023-05-01T16:10:46.387Z,100290.22
2023-05-01T16:12:48.088Z,100293.81
2023-05-01T16:14:49.744Z,100292.66
2023-05-01T16:16:51.464Z,100298.06
2023-05-01T16:18:54.981Z,100294.16
2023-05-01T16:20:58.037Z,100300.44
2023-05-01T16:23:00.050Z,100300.09
2023-05-01T16:25:03.450Z,100299.91
2023-05-01T16:27:05.260Z,100300.81
2023-05-01T16:29:08.065Z,100302.03
2023-05-01T16:31:23.503Z,100300.03
2023-05-01T16:33:28.622Z,100305.91
2023-05-01T16:35:30.340Z,100305.41
2023-05-01T16:37:35.314Z,100311.63
2023-05-01T16:39:36.933Z,100317.88
2023-05-01T16:41:43.262Z,100311.16
2023-05-01T16:43:45.339Z,100310.34
2023-05-01T16:45:47.562Z,100319.75
2023-05-01T16:47:49.834Z,100313.84
2023-05-01T16:49:52.184Z,100316.03
2023-05-01T16:51:53.851Z,100321.75
2023-05-01T16:53:57.008Z,100313.81
2023-05-01T16:55:58.824Z,100321.59
2023-05-01T16:58:00.497Z,100321.94
2023-05-01T17:00:02.509Z,100324.34
2023-05-01T17:02:04.821Z,100326.19
2023-05-01T17:04:06.601Z,100319.09
2023-05-01T17:06:08.311Z,100324.34
2023-05-01T17:08:10.270Z,100323.44
2023-05-01T17:10:13.346Z,100322.13
2023-05-01T17:12:15.405Z,100327.06
2023-05-01T17:14:18.552Z,100326.63
2023-05-01T17:16:20.176Z,100327.22
2023-05-01T17:18:21.761Z,100333.50
2023-05-01T17:20:23.427Z,100333.50
2023-05-01T17:22:27.243Z,100340.72
2023-05-01T17:24:30.901Z,100334.28
2023-05-01T17:26:33.994Z,100343.19
2023-05-01T17:28:36.254Z,100350.34
2023-05-01T17:30:39.468Z,100348.66
2023-05-01T17:34:43.373Z,100353.63
2023-05-01T17:36:45.085Z,100350.56
2023-05-01T17:38:46.706Z,100343.09
2023-05-01T17:40:50.181Z,100356.22
2023-05-01T17:42:54.446Z,100348.13
2023-05-01T17:44:57.138Z,100345.28
2023-05-01T17:46:58.916Z,100363.53
2023-05-01T17:49:01.069Z,100350.91
2023-05-01T17:51:02.786Z,100360.03
2023-05-01T17:53:04.567Z,100360.13
2023-05-01T17:55:07.603Z,100363.09
2023-05-01T17:57:09.290Z,100353.75
2023-05-01T17:59:12.253Z,100361.94
2023-05-01T18:01:14.245Z,100363.25
2023-05-01T18:03:16.054Z,100368.28
2023-05-01T18:05:17.937Z,100372.94
2023-05-01T18:07:19.701Z,100379.13
2023-05-01T18:09:22.743Z,100380.47
2023-05-01T18:11:25.094Z,100384.72
2023-05-01T18:13:26.945Z,100380.72
2023-05-01T18:15:30.051Z,100394.28
2023-05-01T18:17:31.653Z,100398.06
2023-05-01T18:19:33.503Z,100408.09
2023-05-01T18:21:35.359Z,100412.53
2023-05-01T18:23:37.155Z,100415.59
2023-05-01T18:25:39.169Z,100415.59
2023-05-01T18:27:48.053Z,100418.47
2023-05-01T18:29:49.990Z,100420.41
2023-05-01T18:33:55.086Z,100422.31
2023-05-01T18:35:59.307Z,100424.81
2023-05-01T18:38:01.480Z,100424.00
2023-05-01T18:40:05.576Z,100427.41
2023-05-01T18:42:07.596Z,100428.44
2023-05-01T18:44:09.971Z,100427.66
2023-05-01T18:46:12.006Z,100428.22
2023-05-01T18:48:15.192Z,100434.22
2023-05-01T18:50:17.035Z,100436.19
2023-05-01T18:52:18.910Z,100441.19
2023-05-01T18:54:20.576Z,100440.03
2023-05-01T18:56:22.424Z,100446.97
2023-05-01T18:58:26.552Z,100452.19
2023-05-01T19:00:28.257Z,100459.72
2023-05-01T19:02:29.981Z,100463.47
2023-05-01T19:04:49.422Z,100461.72
2023-05-01T19:06:59.219Z,100461.47
2023-05-01T19:09:01.246Z,100473.22
2023-05-01T19:11:03.707Z,100473.22
2023-05-01T19:13:06.597Z,100480.47
2023-05-01T19:15:09.446Z,100478.75
2023-05-01T19:17:12.408Z,100481.94
2023-05-01T19:19:17.320Z,100490.34
2023-05-01T19:21:20.319Z,100496.94
2023-05-01T19:23:22.091Z,100499.53
2023-05-01T19:25:24.438Z,100505.19
2023-05-01T19:27:26.210Z,100510.53
2023-05-01T19:29:28.190Z,100513.59
2023-05-01T19:31:30.004Z,100516.97
2023-05-01T19:33:33.967Z,100522.44
2023-05-01T19:35:35.866Z,100525.00
2023-05-01T19:37:38.889Z,100527.13
2023-05-01T19:39:40.594Z,100534.97
2023-05-01T19:41:42.216Z,100541.44
2023-05-01T19:43:44.113Z,100543.03
2023-05-01T19:45:45.804Z,100546.91
2023-05-01T19:47:47.847Z,100545.78
2023-05-01T19:49:49.752Z,100549.75
2023-05-01T19:51:51.518Z,100543.81
2023-05-01T19:53:54.577Z,100548.94
2023-05-01T19:55:56.229Z,100551.69
2023-05-01T19:57:58.008Z,100551.22
2023-05-01T20:00:00.157Z,100551.06
2023-05-01T20:02:02.254Z,100556.16
2023-05-01T20:04:04.594Z,100559.88
2023-05-01T20:06:06.488Z,100558.03
2023-05-01T20:08:08.412Z,100551.44
2023-05-01T20:10:11.904Z,100559.25
2023-05-01T20:12:13.900Z,100559.75
2023-05-01T20:14:15.546Z,100559.75
2023-05-01T20:16:18.311Z,100565.34
2023-05-01T20:18:20.114Z,100561.53
2023-05-01T20:20:21.785Z,100565.47
2023-05-01T20:22:23.735Z,100566.25
2023-05-01T20:24:25.536Z,100580.88
2023-05-01T20:26:28.856Z,100575.56
2023-05-01T20:28:30.781Z,100585.41
2023-05-01T20:30:32.618Z,100583.63
2023-05-01T20:32:34.935Z,100573.50
2023-05-01T20:34:36.801Z,100579.56
2023-05-01T20:36:38.798Z,100580.69
2023-05-01T20:38:41.509Z,100580.75
2023-05-01T20:40:43.418Z,100586.22
2023-05-01T20:42:46.450Z,100589.25
2023-05-01T20:44:48.574Z,100581.56
2023-05-01T20:46:51.327Z,100584.66
2023-05-01T20:48:53.301Z,100578.72
2023-05-01T20:50:56.525Z,100579.84
2023-05-01T20:52:58.735Z,100577.94
2023-05-01T20:55:00.794Z,100582.56
2023-05-01T20:57:03.273Z,100587.53
2023-05-01T20:59:06.873Z,100585.63
2023-05-01T21:01:09.946Z,100586.91
2023-05-01T21:03:12.804Z,100586.09
2023-05-01T21:05:14.487Z,100586.25
2023-05-01T21:07:16.289Z,100592.50
2023-05-01T21:09:18.334Z,100597.03
2023-05-01T21:11:20.386Z,100598.03
2023-05-01T21:13:22.012Z,100601.72
2023-05-01T21:15:25.199Z,100599.38
2023-05-01T21:17:27.100Z,100601.00
2023-05-01T21:19:29.201Z,100610.03
2023-05-01T21:21:31.073Z,100606.84
2023-05-01T21:23:32.816Z,100603.78
2023-05-01T21:25:34.636Z,100608.09
2023-05-01T21:27:39.823Z,100608.47
2023-05-01T21:29:43.853Z,100607.19
2023-05-01T21:31:47.383Z,100607.84
2023-05-01T21:33:50.921Z,100606.88
2023-05-01T21:35:53.058Z,100608.19
2023-05-01T21:37:54.790Z,100615.91
2023-05-01T21:39:59.041Z,100616.38
2023-05-01T21:42:01.357Z,100618.63
2023-05-01T21:44:03.786Z,100617.84
2023-05-01T21:46:06.107Z,100622.03
2023-05-01T21:48:13.829Z,100626.81
2023-05-01T21:50:19.608Z,100627.13
2023-05-01T21:52:21.541Z,100625.22
2023-05-01T21:54:23.468Z,100626.16
2023-05-01T21:56:25.311Z,100623.28
2023-05-01T21:58:28.312Z,100633.06
2023-05-01T22:00:30.402Z,100631.78
2023-05-01T22:02:39.808Z,100639.81
2023-05-01T22:04:42.934Z,100634.06
2023-05-01T22:06:44.893Z,100631.16
2023-05-01T22:08:48.370Z,100639.31
2023-05-01T22:10:52.610Z,100645.59
2023-05-01T22:12:55.195Z,100644.63
2023-05-01T22:14:57.118Z,100641.75
2023-05-01T22:16:58.929Z,100639.50
2023-05-01T22:19:01.165Z,100639.78
2023-05-01T22:21:05.146Z,100644.31
2023-05-01T22:23:07.391Z,100646.88
2023-05-01T22:25:11.081Z,100651.69
2023-05-01T22:27:13.316Z,100650.09
2023-05-01T22:29:15.242Z,100651.22
2023-05-01T22:31:17.273Z,100651.34
2023-05-01T22:33:20.119Z,100653.44
2023-05-01T22:35:22.016Z,100655.84
2023-05-01T22:37:25.317Z,100663.69
2023-05-01T22:39:26.935Z,100666.75
2023-05-01T22:41:29.898Z,100665.94
2023-05-01T22:43:31.992Z,100671.09
2023-05-01T22:45:34.234Z,100670.13
2023-05-01T22:47:36.294Z,100668.22
2023-05-01T22:49:39.481Z,100669.00
2023-05-01T22:51:41.126Z,100665.47
2023-05-01T22:53:48.643Z,100673.16
2023-05-01T22:55:50.333Z,100669.16
2023-05-01T22:57:52.651Z,100672.19
2023-05-01T22:59:55.094Z,100680.69
2023-05-01T23:01:57.135Z,100671.72
2023-05-01T23:03:59.572Z,100681.19
2023-05-01T23:06:03.806Z,100680.38
2023-05-01T23:08:06.197Z,100678.75
2023-05-01T23:10:11.117Z,100678.28
2023-05-01T23:12:18.394Z,100684.06
2023-05-01T23:14:20.149Z,100685.81
2023-05-01T23:16:22.020Z,100684.03
2023-05-01T23:18:32.774Z,100689.00
2023-05-01T23:20:34.377Z,100688.53
2023-05-01T23:22:36.293Z,100677.66
2023-05-01T23:24:42.713Z,100681.00
2023-05-01T23:26:46.424Z,100681.50
2023-05-01T23:28:48.022Z,100677.00
2023-05-01T23:30:54.469Z,100675.25
2023-05-01T23:33:01.839Z,100673.00
2023-05-01T23:35:08.046Z,100671.06